createdAt,value
2023-05-02T00:01:48.595Z,19.40
2023-05-02T00:04:16.286Z,16.17
2023-05-02T00:06:45.634Z,15.00
2023-05-02T00:09:13.492Z,16.93
2023-05-02T00:11:41.155Z,15.20
2023-05-02T00:14:08.544Z,21.83
2023-05-02T00:16:35.974Z,15.60
2023-05-02T00:19:03.415Z,17.30
2023-05-02T00:21:31.076Z,16.33
2023-05-02T00:23:58.724Z,18.10
2023-05-02T00:26:27.385Z,19.17
2023-05-02T00:28:54.757Z,24.30
2023-05-02T00:31:22.228Z,20.10
2023-05-02T00:33:49.727Z,20.90
2023-05-02T00:36:17.620Z,21.47
2023-05-02T00:38:45.072Z,19.27
2023-05-02T00:41:12.602Z,21.70
2023-05-02T00:43:40.849Z,21.83
2023-05-02T00:46:08.362Z,22.27
2023-05-02T00:48:36.494Z,18.93
2023-05-02T00:51:05.214Z,22.20
2023-05-02T00:53:32.788Z,21.13
2023-05-02T00:56:00.229Z,22.87
2023-05-02T00:58:28.551Z,22.03
2023-05-02T01:01:06.556Z,23.37
2023-05-02T01:03:35.532Z,24.80
2023-05-02T01:06:07.386Z,22.13
2023-05-02T01:08:42.507Z,24.00
2023-05-02T01:11:19.447Z,21.43
2023-05-02T01:13:47.584Z,21.90
2023-05-02T01:16:16.971Z,23.07
2023-05-02T01:18:44.396Z,19.80
2023-05-02T01:21:12.790Z,22.70
2023-05-02T01:23:47.563Z,21.57
2023-05-02T01:26:33.207Z,25.20
2023-05-02T01:29:05.368Z,19.50
2023-05-02T01:31:34.340Z,20.43
2023-05-02T01:34:02.044Z,25.57
2023-05-02T01:36:31.351Z,23.30
2023-05-02T01:38:59.723Z,24.57
2023-05-02T01:41:27.879Z,22.03
2023-05-02T01:43:56.981Z,21.53
2023-05-02T01:46:25.865Z,24.73
2023-05-02T01:48:53.480Z,26.30
2023-05-02T01:51:22.043Z,24.23
2023-05-02T01:53:50.157Z,29.80
2023-05-02T01:56:18.701Z,25.83
2023-05-02T01:58:46.968Z,25.97
2023-05-02T02:01:15.375Z,32.90
2023-05-02T02:03:43.574Z,25.90
2023-05-02T02:06:11.882Z,29.80
2023-05-02T02:08:39.222Z,31.47
2023-05-02T02:11:08.147Z,30.97
2023-05-02T02:13:37.063Z,31.13
2023-05-02T02:16:05.237Z,28.60
2023-05-02T02:18:34.144Z,30.70
2023-05-02T02:21:01.935Z,29.90
2023-05-02T02:23:30.673Z,31.37
2023-05-02T02:25:58.527Z,32.13
2023-05-02T02:28:26.227Z,38.17
2023-05-02T02:30:53.709Z,36.37
2023-05-02T02:33:21.357Z,30.80
2023-05-02T02:35:53.436Z,36.03
2023-05-02T02:38:24.998Z,34.93
2023-05-02T02:40:59.624Z,36.40
2023-05-02T02:43:28.532Z,36.13
2023-05-02T02:46:00.204Z,34.53
2023-05-02T02:48:38.362Z,38.10
2023-05-02T02:51:07.364Z,35.93
2023-05-02T02:53:36.277Z,37.13
2023-05-02T02:56:05.211Z,38.73
2023-05-02T02:58:34.121Z,42.00
2023-05-02T03:01:03.045Z,40.60
2023-05-02T03:03:31.419Z,40.23
2023-05-02T03:05:59.648Z,39.87
2023-05-02T03:08:27.092Z,37.07
2023-05-02T03:10:54.469Z,51.00
2023-05-02T03:13:21.854Z,46.60
2023-05-02T03:15:50.860Z,58.23
2023-05-02T03:18:19.076Z,54.97
2023-05-02T03:20:46.569Z,57.20
2023-05-02T03:23:13.945Z,46.27
2023-05-02T03:25:41.488Z,62.23
2023-05-02T03:28:08.808Z,57.10
2023-05-02T03:30:37.831Z,61.10
2023-05-02T03:33:06.908Z,63.83
2023-05-02T03:35:34.251Z,65.13
2023-05-02T03:38:01.643Z,65.03
2023-05-02T03:40:29.012Z,67.60
2023-05-02T03:42:56.411Z,66.70
2023-05-02T03:45:23.857Z,62.03
2023-05-02T03:47:51.294Z,67.40
2023-05-02T03:50:18.990Z,73.80
2023-05-02T03:52:46.760Z,61.53
2023-05-02T03:55:14.215Z,67.10
2023-05-02T03:57:41.517Z,63.60
2023-05-02T04:00:09.118Z,64.63
2023-05-02T04:02:36.686Z,65.27
2023-05-02T04:05:04.184Z,63.57
2023-05-02T04:07:31.588Z,70.67
2023-05-02T04:09:59.308Z,73.40
2023-05-02T04:12:27.048Z,70.57
2023-05-02T04:14:55.499Z,77.50
2023-05-02T04:17:22.897Z,77.40
2023-05-02T04:19:51.238Z,74.27
2023-05-02T04:22:18.628Z,79.27
2023-05-02T04:24:46.002Z,88.90
2023-05-02T04:27:15.131Z,87.00
2023-05-02T04:29:42.396Z,84.13
2023-05-02T04:32:11.515Z,89.70
2023-05-02T04:34:38.907Z,90.83
2023-05-02T04:37:07.059Z,91.63
2023-05-02T04:39:34.919Z,96.33
2023-05-02T04:42:02.314Z,94.87
2023-05-02T04:44:29.709Z,98.20
2023-05-02T04:46:57.101Z,105.10
2023-05-02T04:49:24.476Z,90.17
2023-05-02T04:51:53.508Z,94.20
2023-05-02T04:54:20.866Z,102.53
2023-05-02T04:56:48.434Z,102.40
2023-05-02T04:59:15.787Z,109.70
2023-05-02T05:01:43.362Z,110.57
2023-05-02T05:04:10.813Z,98.60
2023-05-02T05:06:38.572Z,100.50
2023-05-02T05:09:05.965Z,107.50
2023-05-02T05:11:33.373Z,103.50
2023-05-02T05:14:01.103Z,102.43
2023-05-02T05:16:28.698Z,109.77
2023-05-02T05:18:56.050Z,117.77
2023-05-02T05:21:23.451Z,112.10
2023-05-02T05:23:51.096Z,112.17
2023-05-02T05:26:18.428Z,103.30
2023-05-02T05:28:45.806Z,109.80
2023-05-02T05:31:16.833Z,104.37
2023-05-02T05:33:44.696Z,105.00
2023-05-02T05:36:14.770Z,98.87
2023-05-02T05:38:42.153Z,108.90
2023-05-02T05:41:10.891Z,101.13
2023-05-02T05:43:38.468Z,91.80
2023-05-02T05:46:05.930Z,102.83
2023-05-02T05:48:33.284Z,97.57
2023-05-02T05:51:06.578Z,94.27
2023-05-02T05:53:34.123Z,100.07
2023-05-02T05:56:03.039Z,91.83
2023-05-02T05:58:30.421Z,94.80
2023-05-02T06:00:57.799Z,88.80
2023-05-02T06:03:25.239Z,85.93
2023-05-02T06:05:52.670Z,85.03
2023-05-02T06:08:21.302Z,77.40
2023-05-02T06:10:48.605Z,71.93
2023-05-02T06:13:15.994Z,67.80
2023-05-02T06:15:43.402Z,65.47
2023-05-02T06:18:10.847Z,65.83
2023-05-02T06:20:38.211Z,71.27
2023-05-02T06:23:05.597Z,66.00
2023-05-02T06:25:33.743Z,76.87
2023-05-02T06:28:01.120Z,73.27
2023-05-02T06:30:28.525Z,74.77
2023-05-02T06:32:55.919Z,71.47
2023-05-02T06:35:23.355Z,69.60
2023-05-02T06:37:50.811Z,69.10
2023-05-02T06:40:18.258Z,69.87
2023-05-02T06:42:45.638Z,68.50
2023-05-02T06:45:13.097Z,68.13
2023-05-02T06:47:40.540Z,65.93
2023-05-02T06:50:08.411Z,63.80
2023-05-02T06:52:35.759Z,63.83
2023-05-02T06:55:03.133Z,63.23
2023-05-02T06:57:30.442Z,71.40
2023-05-02T06:59:58.262Z,64.57
2023-05-02T07:02:26.038Z,64.20
2023-05-02T07:04:53.409Z,63.80
2023-05-02T07:07:21.945Z,62.87
2023-05-02T07:09:49.306Z,56.77
2023-05-02T07:12:16.629Z,64.50
2023-05-02T07:14:44.182Z,60.13
2023-05-02T07:17:11.633Z,63.53
2023-05-02T07:19:39.131Z,54.97
2023-05-02T07:22:07.023Z,58.00
2023-05-02T07:24:34.437Z,54.23
2023-05-02T07:27:03.128Z,54.33
2023-05-02T07:29:30.567Z,50.57
2023-05-02T07:31:57.989Z,50.17
2023-05-02T07:34:25.348Z,47.77
2023-05-02T07:36:52.720Z,54.03
2023-05-02T07:39:20.272Z,49.87
2023-05-02T07:41:47.573Z,55.40
2023-05-02T07:44:14.900Z,53.97
2023-05-02T07:46:42.324Z,45.93
2023-05-02T07:49:09.667Z,49.00
2023-05-02T07:51:37.007Z,45.07
2023-05-02T07:54:06.545Z,46.07
2023-05-02T07:56:34.317Z,39.30
2023-05-02T07:59:03.153Z,44.80
2023-05-02T08:01:30.684Z,49.23
2023-05-02T08:03:58.216Z,45.93
2023-05-02T08:06:25.835Z,52.40
2023-05-02T08:08:53.197Z,45.13
2023-05-02T08:11:23.359Z,43.80
2023-05-02T08:13:51.420Z,48.10
2023-05-02T08:16:19.480Z,48.00
2023-05-02T08:18:47.033Z,45.23
2023-05-02T08:21:14.656Z,45.03
2023-05-02T08:23:42.523Z,39.93
2023-05-02T08:26:09.895Z,31.30
2023-05-02T08:28:37.272Z,31.10
2023-05-02T08:31:04.585Z,28.10
2023-05-02T08:33:31.888Z,28.00
2023-05-02T08:36:00.136Z,27.10
2023-05-02T08:38:27.457Z,23.40
2023-05-02T08:40:54.831Z,26.50
2023-05-02T08:43:22.219Z,26.63
2023-05-02T08:45:50.631Z,25.47
2023-05-02T08:48:18.560Z,26.60
2023-05-02T08:50:47.973Z,27.03
2023-05-02T08:53:15.422Z,25.53
2023-05-02T08:55:43.031Z,25.53
2023-05-02T08:58:11.534Z,31.43
2023-05-02T09:00:40.849Z,25.47
2023-05-02T09:03:26.538Z,27.00
2023-05-02T09:05:55.484Z,28.03
2023-05-02T09:08:24.100Z,30.90
2023-05-02T09:10:51.624Z,29.83
2023-05-02T09:13:32.238Z,28.50
2023-05-02T09:16:01.002Z,26.73
2023-05-02T09:18:32.131Z,24.80
2023-05-02T09:21:00.549Z,26.87
2023-05-02T09:23:37.892Z,25.23
2023-05-02T09:26:12.758Z,24.17
2023-05-02T09:28:44.364Z,26.53
2023-05-02T09:31:13.547Z,25.93
2023-05-02T09:33:41.798Z,24.13
2023-05-02T09:36:10.150Z,25.50
2023-05-02T09:38:38.670Z,25.67
2023-05-02T09:41:06.081Z,24.10
2023-05-02T09:43:33.540Z,25.67
2023-05-02T09:46:02.578Z,21.30
2023-05-02T09:48:31.023Z,27.97
2023-05-02T09:50:58.864Z,18.90
2023-05-02T09:53:27.170Z,18.53
2023-05-02T09:56:02.033Z,22.70
2023-05-02T09:58:30.857Z,18.00
2023-05-02T10:00:59.281Z,18.93
2023-05-02T10:03:27.410Z,19.20
2023-05-02T10:05:55.220Z,20.50
2023-05-02T10:08:23.587Z,19.80
2023-05-02T10:10:53.370Z,18.67
2023-05-02T10:13:22.238Z,20.87
2023-05-02T10:15:50.984Z,22.10
2023-05-02T10:18:22.856Z,19.40
2023-05-02T10:20:51.706Z,20.23
2023-05-02T10:23:20.346Z,20.17
2023-05-02T10:25:47.784Z,17.87
2023-05-02T10:28:15.489Z,19.30
2023-05-02T10:30:42.973Z,20.43
2023-05-02T10:33:10.523Z,21.97
2023-05-02T10:35:38.317Z,20.90
2023-05-02T10:38:06.669Z,23.77
2023-05-02T10:40:34.314Z,23.20
2023-05-02T10:43:01.956Z,22.77
2023-05-02T10:45:35.906Z,19.87
2023-05-02T10:48:20.013Z,24.77
2023-05-02T10:50:51.101Z,19.13
2023-05-02T10:53:20.012Z,21.17
2023-05-02T10:55:48.921Z,23.17
2023-05-02T10:58:22.310Z,15.10
2023-05-02T11:00:49.761Z,19.20
2023-05-02T11:03:18.783Z,16.50
2023-05-02T11:06:04.463Z,18.20
2023-05-02T11:08:31.849Z,17.40
2023-05-02T11:11:00.804Z,16.20
2023-05-02T11:13:46.725Z,16.87
2023-05-02T11:16:14.131Z,14.80
2023-05-02T11:18:45.903Z,23.33
2023-05-02T11:21:28.000Z,16.60
2023-05-02T11:23:56.840Z,15.57
2023-05-02T11:26:25.791Z,15.37
2023-05-02T11:28:53.180Z,15.30
2023-05-02T11:31:30.907Z,17.73
2023-05-02T11:33:58.784Z,13.33
2023-05-02T11:36:35.763Z,15.87
2023-05-02T11:39:05.478Z,16.43
2023-05-02T11:41:39.643Z,15.57
2023-05-02T11:44:07.071Z,14.20
2023-05-02T11:46:35.929Z,15.30
2023-05-02T11:49:03.284Z,17.10
2023-05-02T11:51:31.517Z,17.33
2023-05-02T11:53:58.844Z,14.80
2023-05-02T11:56:29.326Z,14.63
2023-05-02T11:59:04.258Z,15.00
2023-05-02T12:01:31.710Z,15.20
2023-05-02T12:04:03.342Z,18.30
2023-05-02T12:06:30.923Z,15.77
2023-05-02T12:09:07.986Z,14.73
2023-05-02T12:11:35.804Z,14.00
2023-05-02T12:14:04.154Z,13.57
2023-05-02T12:16:31.909Z,14.77
2023-05-02T12:19:01.064Z,14.87
2023-05-02T12:21:32.904Z,16.93
2023-05-02T12:24:01.437Z,16.07
2023-05-02T12:26:33.342Z,15.40
2023-05-02T12:29:02.321Z,13.37
2023-05-02T12:31:31.369Z,14.83
2023-05-02T12:34:00.210Z,15.87
2023-05-02T12:36:32.769Z,14.13
2023-05-02T12:39:01.289Z,17.00
2023-05-02T12:41:33.063Z,14.70
2023-05-02T12:44:03.461Z,19.27
2023-05-02T12:46:31.401Z,15.87
2023-05-02T12:49:06.410Z,15.60
2023-05-02T12:51:34.611Z,16.20
2023-05-02T12:54:02.501Z,17.77
2023-05-02T12:56:31.592Z,20.33
2023-05-02T12:59:00.861Z,18.10
2023-05-02T13:01:29.090Z,18.77
2023-05-02T13:03:56.455Z,23.47
2023-05-02T13:06:23.837Z,17.87
2023-05-02T13:08:51.179Z,21.80
2023-05-02T13:11:19.153Z,20.93
2023-05-02T13:13:46.516Z,18.73
2023-05-02T13:16:14.067Z,19.57
2023-05-02T13:18:41.522Z,18.80
2023-05-02T13:21:08.861Z,17.07
2023-05-02T13:23:36.298Z,21.10
2023-05-02T13:26:03.942Z,19.80
2023-05-02T13:28:33.115Z,17.23
2023-05-02T13:31:00.508Z,17.60
2023-05-02T13:33:27.973Z,15.30
2023-05-02T13:35:55.374Z,17.07
2023-05-02T13:38:22.685Z,14.30
2023-05-02T13:40:50.491Z,16.03
2023-05-02T13:43:17.806Z,16.40
2023-05-02T13:45:46.945Z,16.33
2023-05-02T13:48:15.407Z,14.33
2023-05-02T13:50:42.748Z,15.40
2023-05-02T13:53:10.120Z,15.60
2023-05-02T13:55:37.464Z,15.60
2023-05-02T13:58:05.339Z,18.30
2023-05-02T14:00:32.921Z,16.60
2023-05-02T14:03:00.355Z,14.67
2023-05-02T14:05:27.829Z,16.83
2023-05-02T14:07:55.228Z,16.60
2023-05-02T14:10:22.621Z,18.50
2023-05-02T14:12:49.979Z,15.07
2023-05-02T14:15:17.349Z,17.40
2023-05-02T14:17:44.753Z,13.80
2023-05-02T14:20:12.245Z,14.93
2023-05-02T14:22:39.708Z,14.77
2023-05-02T14:25:07.521Z,16.00
2023-05-02T14:27:34.830Z,23.50
2023-05-02T14:30:02.411Z,15.43
2023-05-02T14:32:30.030Z,16.80
2023-05-02T14:34:57.391Z,14.03
2023-05-02T14:37:25.014Z,16.67
2023-05-02T14:39:55.106Z,18.20
2023-05-02T14:42:23.587Z,13.93
2023-05-02T14:44:52.365Z,14.20
2023-05-02T14:47:20.324Z,17.80
2023-05-02T14:49:47.973Z,13.73
2023-05-02T14:52:15.525Z,14.77
2023-05-02T14:54:42.940Z,13.50
2023-05-02T14:57:11.041Z,13.63
2023-05-02T14:59:38.779Z,14.83
2023-05-02T15:02:06.766Z,14.23
2023-05-02T15:04:34.442Z,14.83
2023-05-02T15:07:01.984Z,12.50
2023-05-02T15:09:29.712Z,10.73
2023-05-02T15:11:57.173Z,15.33
2023-05-02T15:14:24.641Z,13.07
2023-05-02T15:16:53.099Z,10.90
2023-05-02T15:19:22.505Z,13.77
2023-05-02T15:21:50.151Z,12.57
2023-05-02T15:24:17.644Z,14.03
2023-05-02T15:26:44.995Z,13.90
2023-05-02T15:29:12.381Z,13.47
2023-05-02T15:31:40.356Z,13.00
2023-05-02T15:34:07.887Z,12.53
2023-05-02T15:36:36.910Z,15.13
2023-05-02T15:39:04.655Z,13.27
2023-05-02T15:41:32.074Z,19.50
2023-05-02T15:43:59.509Z,14.10
2023-05-02T15:46:27.109Z,14.63
2023-05-02T15:48:54.528Z,14.20
2023-05-02T15:51:21.922Z,14.00
2023-05-02T15:53:51.426Z,14.27
2023-05-02T15:56:20.110Z,15.77
2023-05-02T15:58:47.941Z,16.00
2023-05-02T16:01:15.401Z,14.40
2023-05-02T16:03:42.910Z,13.27
2023-05-02T16:06:10.473Z,13.60
2023-05-02T16:08:37.853Z,14.47
2023-05-02T16:11:05.471Z,14.33
2023-05-02T16:13:33.200Z,13.30
2023-05-02T16:16:00.787Z,14.63
2023-05-02T16:18:28.930Z,13.17
2023-05-02T16:20:59.302Z,13.00
2023-05-02T16:23:26.938Z,13.07
2023-05-02T16:25:58.015Z,14.13
2023-05-02T16:28:25.370Z,12.67
2023-05-02T16:30:52.805Z,13.30
2023-05-02T16:33:21.752Z,15.70
2023-05-02T16:35:49.554Z,15.97
2023-05-02T16:38:17.426Z,14.13
2023-05-02T16:40:44.820Z,15.40
2023-05-02T16:43:12.236Z,13.60
2023-05-02T16:45:39.560Z,12.33
2023-05-02T16:48:07.324Z,12.20
2023-05-02T16:50:35.637Z,12.50
2023-05-02T16:53:03.002Z,12.30
2023-05-02T16:55:30.306Z,14.67
2023-05-02T16:57:57.669Z,14.90
2023-05-02T17:00:25.121Z,15.30
2023-05-02T17:02:54.246Z,16.63
2023-05-02T17:05:22.526Z,15.70
2023-05-02T17:07:49.887Z,16.60
2023-05-02T17:10:17.256Z,12.20
2023-05-02T17:12:45.719Z,17.17
2023-05-02T17:15:14.712Z,12.50
2023-05-02T17:17:42.411Z,15.83
2023-05-02T17:20:11.268Z,16.00
2023-05-02T17:22:39.108Z,15.00
2023-05-02T17:25:06.640Z,12.97
2023-05-02T17:27:34.108Z,13.57
2023-05-02T17:30:01.740Z,14.17
2023-05-02T17:32:29.452Z,14.03
2023-05-02T17:34:58.691Z,13.17
2023-05-02T17:37:26.065Z,14.03
2023-05-02T17:39:53.393Z,15.03
2023-05-02T17:42:20.765Z,16.60
2023-05-02T17:44:48.367Z,13.53
2023-05-02T17:47:17.381Z,13.93
2023-05-02T17:49:45.731Z,15.43
2023-05-02T17:52:13.176Z,13.27
2023-05-02T17:54:40.543Z,14.67
2023-05-02T17:57:08.098Z,12.33
2023-05-02T17:59:37.027Z,13.17
2023-05-02T18:02:04.399Z,15.57
2023-05-02T18:04:31.704Z,12.30
2023-05-02T18:06:59.179Z,15.50
2023-05-02T18:09:26.729Z,14.07
2023-05-02T18:11:55.164Z,15.03
2023-05-02T18:14:22.537Z,12.60
2023-05-02T18:16:49.918Z,14.00
2023-05-02T18:19:17.281Z,12.00
2023-05-02T18:21:45.041Z,11.57
2023-05-02T18:24:12.484Z,13.87
2023-05-02T18:26:39.845Z,13.70
2023-05-02T18:29:08.676Z,12.07
2023-05-02T18:31:37.194Z,10.73
2023-05-02T18:34:04.628Z,13.90
2023-05-02T18:36:31.996Z,18.80
2023-05-02T18:39:00.149Z,12.10
2023-05-02T18:41:27.602Z,13.20
2023-05-02T18:43:54.949Z,12.83
2023-05-02T18:46:22.371Z,16.67
2023-05-02T18:48:49.716Z,17.53
2023-05-02T18:51:17.082Z,14.10
2023-05-02T18:53:44.510Z,13.57
2023-05-02T18:56:14.697Z,14.93
2023-05-02T18:58:42.851Z,15.57
2023-05-02T19:01:15.242Z,15.77
2023-05-02T19:03:43.609Z,14.60
2023-05-02T19:06:11.399Z,14.67
2023-05-02T19:08:40.005Z,18.00
2023-05-02T19:11:07.475Z,13.70
2023-05-02T19:13:34.847Z,12.27
2023-05-02T19:16:02.321Z,11.33
2023-05-02T19:18:29.690Z,16.67
2023-05-02T19:20:57.073Z,13.30
2023-05-02T19:23:25.464Z,14.70
2023-05-02T19:25:52.832Z,12.40
2023-05-02T19:28:20.193Z,13.30
2023-05-02T19:30:47.622Z,14.87
2023-05-02T19:33:14.924Z,13.80
2023-05-02T19:35:42.337Z,12.47
2023-05-02T19:38:09.690Z,15.17
2023-05-02T19:40:36.990Z,15.33
2023-05-02T19:43:04.522Z,17.87
2023-05-02T19:45:31.831Z,13.07
2023-05-02T19:47:59.269Z,13.83
2023-05-02T19:50:26.685Z,12.83
2023-05-02T19:52:53.970Z,15.23
2023-05-02T19:55:21.369Z,13.73
2023-05-02T19:57:48.808Z,15.00
2023-05-02T20:00:16.646Z,12.60
2023-05-02T20:02:44.387Z,15.60
2023-05-02T20:05:11.833Z,27.83
2023-05-02T20:07:39.273Z,12.97
2023-05-02T20:10:07.145Z,15.83
2023-05-02T20:12:34.506Z,14.30
2023-05-02T20:15:02.093Z,13.80
2023-05-02T20:17:29.534Z,17.23
2023-05-02T20:19:57.342Z,14.17
2023-05-02T20:22:24.713Z,12.50
2023-05-02T20:24:52.118Z,18.13
2023-05-02T20:27:19.469Z,17.73
2023-05-02T20:29:47.099Z,16.73
2023-05-02T20:32:14.934Z,17.63
2023-05-02T20:34:42.258Z,12.87
2023-05-02T20:37:13.124Z,15.20
2023-05-02T20:39:40.518Z,13.20
2023-05-02T20:42:08.458Z,14.33
2023-05-02T20:44:36.487Z,14.40
2023-05-02T20:47:04.050Z,12.10
2023-05-02T20:49:32.967Z,13.97
2023-05-02T20:52:01.811Z,14.37
2023-05-02T20:54:29.179Z,16.27
2023-05-02T20:56:56.485Z,13.70
2023-05-02T20:59:25.232Z,14.63
2023-05-02T21:01:52.594Z,16.43
2023-05-02T21:04:19.984Z,15.03
2023-05-02T21:06:47.744Z,18.00
2023-05-02T21:09:16.004Z,14.83
2023-05-02T21:11:43.456Z,12.57
2023-05-02T21:14:11.625Z,16.50
2023-05-02T21:16:39.093Z,19.37
2023-05-02T21:19:06.430Z,16.20
2023-05-02T21:21:33.770Z,14.00
2023-05-02T21:24:01.665Z,17.40
2023-05-02T21:26:29.223Z,16.73
2023-05-02T21:28:56.615Z,14.33
2023-05-02T21:31:24.027Z,18.57
2023-05-02T21:33:51.346Z,14.10
2023-05-02T21:36:18.718Z,18.17
2023-05-02T21:38:46.077Z,16.20
2023-05-02T21:41:13.404Z,16.40
2023-05-02T21:43:41.124Z,18.23
2023-05-02T21:46:09.969Z,18.63
2023-05-02T21:48:37.338Z,14.73
2023-05-02T21:51:11.447Z,17.47
2023-05-02T21:53:38.798Z,15.10
2023-05-02T21:56:06.943Z,14.63
2023-05-02T21:58:34.382Z,15.57
2023-05-02T22:01:01.714Z,16.47
2023-05-02T22:03:29.952Z,19.27
2023-05-02T22:05:57.849Z,16.13
2023-05-02T22:08:25.297Z,15.20
2023-05-02T22:10:52.731Z,17.23
2023-05-02T22:13:20.062Z,15.30
2023-05-02T22:15:47.589Z,15.47
2023-05-02T22:18:16.506Z,16.87
2023-05-02T22:20:44.346Z,14.67
2023-05-02T22:23:12.176Z,17.60
2023-05-02T22:25:43.173Z,16.87
2023-05-02T22:28:13.936Z,24.53
2023-05-02T22:30:44.742Z,18.20
2023-05-02T22:33:13.765Z,15.60
2023-05-02T22:35:41.216Z,17.33
2023-05-02T22:38:11.291Z,16.43
2023-05-02T22:40:38.652Z,15.07
2023-05-02T22:43:05.961Z,17.87
2023-05-02T22:45:34.135Z,17.87
2023-05-02T22:48:01.542Z,17.90
2023-05-02T22:50:29.969Z,21.00
2023-05-02T22:52:58.954Z,19.33
2023-05-02T22:55:26.360Z,18.40
2023-05-02T22:57:53.744Z,20.33
2023-05-02T23:00:22.404Z,26.70
2023-05-02T23:02:49.934Z,22.60
2023-05-02T23:05:17.412Z,18.60
2023-05-02T23:07:44.838Z,17.93
2023-05-02T23:10:12.175Z,19.03
2023-05-02T23:12:39.596Z,15.27
2023-05-02T23:15:07.348Z,17.17
2023-05-02T23:17:36.997Z,19.80
2023-05-02T23:20:05.109Z,19.23
2023-05-02T23:22:34.081Z,19.80
2023-05-02T23:25:01.432Z,17.40
2023-05-02T23:27:28.789Z,18.63
2023-05-02T23:29:56.175Z,20.30
2023-05-02T23:32:23.885Z,17.97
2023-05-02T23:34:51.293Z,21.57
2023-05-02T23:37:18.654Z,19.20
2023-05-02T23:39:45.977Z,19.90
2023-05-02T23:42:13.342Z,15.80
2023-05-02T23:44:40.714Z,20.43
2023-05-02T23:47:08.211Z,24.47
2023-05-02T23:49:36.941Z,19.73
2023-05-02T23:52:05.479Z,16.30
2023-05-02T23:54:34.658Z,19.67
2023-05-02T23:57:03.019Z,17.67
2023-05-02T23:59:30.386Z,20.23
